Time;durP1;ratioP1;P1;durP2;ratioP2;P2;SDS_P1;SDS_P2;PMS_P1;PMS_P2;Temp;Humidity;BMP_temperature;BMP_pressure;BME280_temperature;BME280_humidity;BME280_pressure;Samples;Min_cycle;Max_cycle;Signal;HPM_P1;HPM_P2
2022/09/21 00:00:49;;;;;;;1.20;1.20;;;21.30;65.80;;;;;;5015683;28;43875;-76
2022/09/21 00:03:18;;;;;;;1.40;1.40;;;21.30;66.10;;;;;;5020684;28;43709;-77
2022/09/21 00:05:45;;;;;;;1.10;1.10;;;21.20;66.70;;;;;;5024872;28;43499;-76
2022/09/21 00:08:14;;;;;;;1.30;1.30;;;21.20;66.70;;;;;;5017717;28;43972;-78
2022/09/21 00:10:42;;;;;;;1.20;1.20;;;21.20;66.60;;;;;;5024144;28;44327;-78
2022/09/21 00:13:11;;;;;;;1.10;1.10;;;21.10;66.50;;;;;;5045252;28;43440;-76
2022/09/21 00:15:40;;;;;;;1.10;1.10;;;21.10;66.60;;;;;;5029834;28;43421;-77
2022/09/21 00:18:09;;;;;;;1.20;1.20;;;21.00;66.90;;;;;;5024859;28;43840;-77
2022/09/21 00:20:40;;;;;;;1.20;1.20;;;21.00;67.20;;;;;;5022269;28;43498;-77
2022/09/21 00:23:08;;;;;;;1.30;1.30;;;21.00;66.90;;;;;;5018255;28;43384;-77
2022/09/21 00:25:36;;;;;;;1.13;1.13;;;21.00;66.90;;;;;;5016088;28;43462;-77
2022/09/21 00:28:04;;;;;;;1.30;1.30;;;21.00;66.90;;;;;;5024555;28;45710;-77
2022/09/21 00:30:32;;;;;;;1.33;1.33;;;21.00;67.10;;;;;;5008374;28;44810;-77
2022/09/21 00:33:01;;;;;;;1.30;1.30;;;21.00;67.40;;;;;;5013372;28;43498;-77
2022/09/21 00:35:29;;;;;;;1.20;1.20;;;21.10;67.20;;;;;;5019882;28;43392;-77
2022/09/21 00:38:00;;;;;;;1.20;1.20;;;21.20;66.70;;;;;;5013973;28;44063;-77
2022/09/21 00:40:29;;;;;;;1.27;1.27;;;21.30;66.40;;;;;;5021239;28;43459;-77
2022/09/21 00:43:11;;;;;;;1.20;1.20;;;21.30;66.20;;;;;;5020245;28;44056;-76
2022/09/21 00:45:39;;;;;;;1.40;1.40;;;21.20;66.40;;;;;;5020980;28;43838;-78
2022/09/21 00:48:09;;;;;;;1.53;1.53;;;21.20;66.60;;;;;;5019246;28;43781;-77
2022/09/21 00:50:39;;;;;;;1.13;1.13;;;21.20;66.50;;;;;;5027990;28;43443;-77
2022/09/21 00:53:07;;;;;;;1.13;1.13;;;21.20;66.50;;;;;;5025042;28;43393;-76
2022/09/21 00:55:36;;;;;;;1.20;1.20;;;21.10;66.40;;;;;;5012052;28;43489;-77
2022/09/21 00:58:07;;;;;;;1.13;1.13;;;21.10;66.80;;;;;;5023164;28;44171;-77
2022/09/21 01:00:35;;;;;;;1.27;1.17;;;21.00;67.00;;;;;;5015982;28;44611;-77
2022/09/21 01:03:03;;;;;;;1.20;1.20;;;21.10;66.80;;;;;;5022895;28;43422;-77
2022/09/21 01:05:33;;;;;;;1.17;1.17;;;21.20;66.40;;;;;;5022560;28;43670;-77
2022/09/21 01:08:01;;;;;;;1.10;1.10;;;21.30;66.30;;;;;;5014309;28;43840;-76
2022/09/21 01:10:31;;;;;;;1.10;1.10;;;21.30;66.20;;;;;;5019698;28;43762;-77
2022/09/21 01:13:05;;;;;;;1.20;1.20;;;21.20;66.40;;;;;;5024766;28;43476;-77
2022/09/21 01:15:37;;;;;;;1.20;1.20;;;21.20;67.20;;;;;;5016844;28;43559;-77
2022/09/21 01:18:11;;;;;;;1.17;1.17;;;21.20;66.40;;;;;;5021138;28;43979;-77
2022/09/21 01:21:14;;;;;;;0.93;0.93;;;21.20;66.40;;;;;;5011283;28;44593;-77
2022/09/21 01:24:04;;;;;;;1.10;1.10;;;21.10;66.50;;;;;;5018887;28;43395;-79
2022/09/21 01:26:39;;;;;;;1.10;1.10;;;21.10;67.10;;;;;;5025843;28;43563;-77
2022/09/21 01:29:27;;;;;;;1.10;1.10;;;21.10;67.00;;;;;;5015772;28;45744;-78
2022/09/21 01:31:58;;;;;;;1.07;1.07;;;21.00;67.50;;;;;;5012493;28;45123;-77
2022/09/21 01:34:28;;;;;;;1.30;1.30;;;21.00;66.70;;;;;;5020998;28;43439;-77
2022/09/21 01:36:57;;;;;;;1.03;1.03;;;20.90;66.90;;;;;;5016803;28;44075;-77
2022/09/21 01:39:25;;;;;;;1.10;1.10;;;20.90;67.30;;;;;;5009882;28;45636;-76
2022/09/21 01:41:53;;;;;;;1.10;1.10;;;21.00;67.20;;;;;;5018063;28;43466;-77
2022/09/21 01:44:22;;;;;;;1.10;1.10;;;21.00;67.00;;;;;;5019411;28;43431;-76
2022/09/21 01:46:52;;;;;;;1.00;1.00;;;20.90;66.80;;;;;;5031653;28;43946;-76
2022/09/21 01:49:21;;;;;;;1.10;1.10;;;20.90;66.90;;;;;;5021831;28;44356;-76
2022/09/21 01:51:52;;;;;;;1.10;1.10;;;20.90;67.40;;;;;;5051704;28;43920;-77
2022/09/21 01:54:21;;;;;;;1.23;1.23;;;21.00;67.30;;;;;;5024806;28;43434;-76
2022/09/21 01:56:52;;;;;;;1.13;1.13;;;21.10;66.80;;;;;;5011096;28;43981;-77
2022/09/21 01:59:22;;;;;;;1.00;1.00;;;21.20;66.30;;;;;;5020185;28;43635;-76
2022/09/21 02:01:53;;;;;;;1.10;1.10;;;21.40;65.90;;;;;;5012240;28;43452;-78
2022/09/21 02:04:21;;;;;;;1.20;1.20;;;21.40;65.80;;;;;;5043327;28;43939;-76
2022/09/21 02:06:49;;;;;;;1.10;1.10;;;21.40;65.70;;;;;;5012367;28;44021;-76
2022/09/21 02:09:17;;;;;;;1.10;1.10;;;21.30;65.80;;;;;;5020396;28;43825;-77
2022/09/21 02:11:45;;;;;;;1.13;1.13;;;21.20;66.00;;;;;;5013677;28;44630;-76
2022/09/21 02:14:14;;;;;;;1.10;1.10;;;21.20;66.70;;;;;;5021118;28;43465;-79
2022/09/21 02:16:46;;;;;;;1.10;1.10;;;21.10;66.60;;;;;;5020243;28;43403;-77
2022/09/21 02:19:20;;;;;;;1.20;1.20;;;21.10;66.60;;;;;;5029527;28;44295;-77
2022/09/21 02:21:57;;;;;;;1.10;1.10;;;21.00;66.60;;;;;;5023113;28;43495;-77
2022/09/21 02:24:35;;;;;;;1.00;1.00;;;21.00;66.80;;;;;;5024557;28;43438;-77
2022/09/21 02:27:05;;;;;;;1.00;1.00;;;21.00;67.20;;;;;;5017937;28;43990;-77
2022/09/21 02:29:39;;;;;;;1.10;1.10;;;21.10;67.00;;;;;;5019343;28;43996;-77
2022/09/21 02:32:09;;;;;;;1.13;1.13;;;21.20;66.60;;;;;;5027714;28;43485;-77
2022/09/21 02:34:41;;;;;;;1.07;1.07;;;21.20;66.30;;;;;;5032021;28;43429;-77
2022/09/21 02:37:11;;;;;;;1.00;1.00;;;21.20;66.20;;;;;;5017878;28;43426;-77
2022/09/21 02:39:40;;;;;;;1.20;1.20;;;21.20;66.50;;;;;;5033072;28;43636;-76
2022/09/21 02:42:09;;;;;;;1.00;1.00;;;21.20;66.50;;;;;;5025933;28;43438;-76
2022/09/21 02:44:39;;;;;;;1.10;1.10;;;21.20;66.40;;;;;;5021186;28;43928;-76
2022/09/21 02:47:10;;;;;;;1.13;1.13;;;21.10;66.30;;;;;;5023862;28;43977;-77
2022/09/21 02:49:41;;;;;;;1.00;1.00;;;21.10;66.50;;;;;;5019042;28;43711;-76
2022/09/21 02:52:12;;;;;;;0.90;0.90;;;21.00;66.70;;;;;;5021544;28;43527;-77
2022/09/21 02:54:40;;;;;;;0.90;0.90;;;21.00;67.00;;;;;;5015843;28;43969;-77
2022/09/21 02:57:08;;;;;;;1.00;1.00;;;21.00;66.90;;;;;;5074285;28;43462;-77
2022/09/21 02:59:36;;;;;;;0.97;0.97;;;21.00;66.80;;;;;;5077675;28;43804;-77
2022/09/21 03:02:05;;;;;;;0.90;0.90;;;21.00;66.80;;;;;;5077413;28;43881;-77
2022/09/21 03:04:33;;;;;;;1.00;1.00;;;20.90;66.80;;;;;;5055757;28;43417;-76
2022/09/21 03:07:03;;;;;;;1.00;1.00;;;20.90;67.30;;;;;;5068780;28;43531;-77
2022/09/21 03:09:31;;;;;;;1.00;1.00;;;21.00;67.10;;;;;;5072060;28;43662;-76
2022/09/21 03:11:59;;;;;;;0.90;0.90;;;21.10;66.70;;;;;;5067453;28;43492;-77
2022/09/21 03:14:27;;;;;;;0.90;0.90;;;21.20;66.20;;;;;;5067319;28;43379;-77
2022/09/21 03:16:55;;;;;;;0.90;0.90;;;21.30;65.70;;;;;;5052258;28;43846;-76
2022/09/21 03:19:23;;;;;;;1.10;1.10;;;21.40;65.70;;;;;;5050798;28;45294;-77
2022/09/21 03:21:52;;;;;;;0.90;0.90;;;21.30;65.60;;;;;;5068155;28;43830;-76
2022/09/21 03:27:03;;;;;;;1.00;1.00;;;21.20;66.80;;;;;;5072611;28;43512;-77
2022/09/21 03:29:31;;;;;;;1.10;1.10;;;21.10;66.70;;;;;;5063986;28;46159;-77
2022/09/21 03:31:59;;;;;;;0.90;0.90;;;21.10;66.60;;;;;;5053877;28;44346;-77
2022/09/21 03:34:27;;;;;;;0.80;0.80;;;21.00;66.50;;;;;;5075178;28;43451;-77
2022/09/21 03:36:56;;;;;;;1.00;1.00;;;21.00;66.60;;;;;;5074840;28;43515;-77
2022/09/21 03:39:25;;;;;;;1.00;1.00;;;20.90;66.60;;;;;;5048858;28;45409;-78
2022/09/21 03:41:55;;;;;;;0.70;0.70;;;20.90;67.10;;;;;;5075254;28;43542;-77
2022/09/21 03:44:23;;;;;;;1.00;1.00;;;21.00;67.00;;;;;;5056715;28;43433;-76
2022/09/21 03:46:51;;;;;;;1.00;1.00;;;20.90;66.70;;;;;;5052721;28;43447;-75
2022/09/21 03:49:19;;;;;;;1.00;1.00;;;20.90;66.70;;;;;;5048247;28;45356;-75
2022/09/21 03:51:47;;;;;;;2.47;1.87;;;20.90;66.70;;;;;;5067473;28;43406;-77
2022/09/21 03:54:15;;;;;;;4.60;2.30;;;20.90;67.30;;;;;;5055338;28;43835;-77
2022/09/21 03:56:47;;;;;;;3.43;2.37;;;20.90;67.20;;;;;;5040854;28;43567;-77
2022/09/21 03:59:15;;;;;;;4.93;2.30;;;21.10;66.90;;;;;;5067623;28;43842;-77
2022/09/21 04:01:43;;;;;;;5.70;3.07;;;21.20;66.30;;;;;;5026473;28;44598;-77
2022/09/21 04:04:11;;;;;;;10.00;3.70;;;21.30;65.90;;;;;;5040895;28;43848;-76
2022/09/21 04:06:45;;;;;;;7.57;3.73;;;21.40;65.80;;;;;;5066098;28;43556;-78
2022/09/21 04:09:12;;;;;;;9.53;4.10;;;21.30;65.60;;;;;;5048427;28;45866;-77
2022/09/21 04:11:40;;;;;;;8.70;4.57;;;21.20;65.90;;;;;;5057869;28;45139;-78
2022/09/21 04:14:11;;;;;;;12.10;5.27;;;21.20;66.00;;;;;;5076365;28;43425;-74
2022/09/21 04:16:39;;;;;;;7.60;4.27;;;21.10;66.50;;;;;;5048456;28;43564;-76
2022/09/21 04:19:09;;;;;;;11.30;4.87;;;21.00;66.60;;;;;;5068725;28;43854;-76
2022/09/21 04:21:37;;;;;;;10.00;5.00;;;21.00;66.40;;;;;;5081958;28;44924;-77
2022/09/21 04:24:05;;;;;;;11.80;5.07;;;21.00;66.50;;;;;;5047399;28;43461;-76
2022/09/21 04:26:33;;;;;;;9.57;4.97;;;20.90;67.20;;;;;;5065334;28;43372;-76
2022/09/21 04:29:01;;;;;;;12.30;4.90;;;20.90;66.80;;;;;;5042604;28;45245;-76
2022/09/21 04:31:30;;;;;;;13.43;5.50;;;20.90;67.20;;;;;;5066207;28;43531;-76
2022/09/21 04:33:58;;;;;;;10.60;5.03;;;20.90;66.90;;;;;;5073060;28;44050;-75
2022/09/21 04:36:27;;;;;;;6.90;4.70;;;20.90;66.70;;;;;;5066858;28;43399;-75
2022/09/21 04:39:01;;;;;;;10.63;5.07;;;20.90;66.70;;;;;;5072448;28;43704;-76
2022/09/21 04:41:28;;;;;;;12.10;5.87;;;20.90;67.00;;;;;;5066983;28;43413;-77
2022/09/21 04:43:56;;;;;;;10.40;4.77;;;20.90;67.40;;;;;;5066004;28;43507;-76
2022/09/21 04:46:24;;;;;;;11.33;5.17;;;20.90;66.90;;;;;;5069791;28;43415;-76
2022/09/21 04:48:54;;;;;;;10.00;5.10;;;21.10;66.60;;;;;;5070795;28;43843;-76
2022/09/21 04:51:22;;;;;;;10.70;5.67;;;21.20;66.00;;;;;;5047739;28;44384;-77
2022/09/21 04:53:51;;;;;;;11.07;5.23;;;21.30;65.80;;;;;;5068443;28;43374;-76
2022/09/21 04:56:19;;;;;;;12.63;5.30;;;21.30;65.70;;;;;;5076693;28;43508;-77
2022/09/21 04:58:47;;;;;;;8.13;5.03;;;21.20;65.70;;;;;;5070974;28;43766;-77
2022/09/21 05:01:14;;;;;;;7.97;5.07;;;21.20;65.90;;;;;;5059605;28;43423;-77
2022/09/21 05:03:44;;;;;;;7.57;4.97;;;21.10;66.30;;;;;;5048290;28;43451;-78
2022/09/21 05:06:26;;;;;;;12.07;4.80;;;21.00;66.60;;;;;;5066977;28;43444;-76
2022/09/21 05:11:39;;;;;;;8.87;4.77;;;21.00;66.50;;;;;;5041676;28;43490;-77
2022/09/21 05:14:07;;;;;;;8.67;4.60;;;20.90;66.50;;;;;;5065500;28;43427;-76
2022/09/21 05:16:35;;;;;;;7.27;4.67;;;20.90;66.90;;;;;;5051973;28;43583;-78
2022/09/21 05:19:03;;;;;;;8.13;5.30;;;20.90;67.10;;;;;;5062523;28;43559;-77
2022/09/21 05:21:33;;;;;;;9.60;5.20;;;20.90;66.90;;;;;;5076117;28;44670;-77
2022/09/21 05:24:01;;;;;;;8.17;4.60;;;20.90;66.80;;;;;;5069155;28;44192;-78
2022/09/21 05:26:29;;;;;;;8.73;4.90;;;20.90;66.80;;;;;;5068998;28;43442;-78
2022/09/21 05:28:58;;;;;;;9.00;4.93;;;20.80;67.90;;;;;;5063880;28;43854;-77
2022/09/21 05:31:34;;;;;;;8.23;4.57;;;20.90;67.20;;;;;;5070026;28;43475;-77
2022/09/21 05:34:05;;;;;;;7.30;4.67;;;21.00;66.90;;;;;;5068755;28;43475;-77
2022/09/21 05:36:45;;;;;;;5.77;4.07;;;21.10;66.30;;;;;;5050801;28;43455;-77
2022/09/21 05:39:13;;;;;;;7.63;4.73;;;21.30;65.80;;;;;;5066911;28;43603;-77
2022/09/21 05:41:41;;;;;;;5.37;4.20;;;21.30;65.60;;;;;;5052679;28;44651;-78
2022/09/21 05:44:10;;;;;;;6.47;4.10;;;21.30;65.50;;;;;;5069411;28;43285;-77
2022/09/21 05:46:39;;;;;;;5.60;4.10;;;21.20;65.50;;;;;;5069085;28;44198;-77
2022/09/21 05:49:14;;;;;;;10.00;5.07;;;21.20;65.80;;;;;;5068557;28;43620;-76
2022/09/21 05:51:48;;;;;;;6.67;4.80;;;21.10;66.20;;;;;;5081400;28;44344;-77
2022/09/21 05:54:19;;;;;;;6.97;4.13;;;21.00;66.60;;;;;;5050170;28;43357;-77
2022/09/21 05:56:49;;;;;;;4.40;3.57;;;21.00;66.50;;;;;;5062584;28;44027;-77
2022/09/21 05:59:30;;;;;;;4.73;3.87;;;20.90;66.40;;;;;;5065362;28;43925;-76
2022/09/21 06:02:00;;;;;;;5.13;3.83;;;20.90;66.50;;;;;;5074827;28;43961;-76
2022/09/21 06:04:29;;;;;;;6.03;4.50;;;20.90;66.90;;;;;;5068731;28;43404;-75
2022/09/21 06:06:58;;;;;;;7.20;4.30;;;20.90;67.00;;;;;;5078326;28;43621;-77
2022/09/21 06:09:26;;;;;;;6.50;4.50;;;20.90;66.90;;;;;;5043371;28;45706;-76
2022/09/21 06:11:54;;;;;;;7.27;4.57;;;20.90;66.80;;;;;;5070230;28;43830;-75
2022/09/21 06:14:25;;;;;;;5.73;4.23;;;20.80;66.70;;;;;;5049523;28;43995;-76
2022/09/21 06:16:53;;;;;;;4.13;3.70;;;20.80;66.90;;;;;;5069097;28;43419;-76
2022/09/21 06:19:21;;;;;;;4.67;3.90;;;20.80;67.30;;;;;;5049554;28;45619;-76
2022/09/21 06:21:49;;;;;;;4.87;3.87;;;20.90;67.00;;;;;;5067996;28;43440;-76
2022/09/21 06:24:18;;;;;;;4.50;4.10;;;21.00;66.50;;;;;;5068329;28;43886;-76
2022/09/21 06:26:46;;;;;;;4.53;4.07;;;21.20;66.00;;;;;;5067436;28;43481;-76
2022/09/21 06:29:14;;;;;;;5.33;3.77;;;21.30;65.60;;;;;;5068815;28;44999;-77
2022/09/21 06:31:42;;;;;;;5.73;3.87;;;21.30;65.50;;;;;;5049036;28;44867;-76
2022/09/21 06:34:10;;;;;;;5.37;3.90;;;21.20;65.50;;;;;;5075043;28;43344;-76
2022/09/21 06:36:38;;;;;;;4.90;4.07;;;21.20;65.80;;;;;;5068017;28;43459;-75
2022/09/21 06:39:06;;;;;;;5.27;3.97;;;21.10;66.00;;;;;;5067054;28;43838;-75
2022/09/21 06:41:35;;;;;;;4.67;3.73;;;21.00;66.60;;;;;;5074762;28;43935;-76
2022/09/21 06:44:09;;;;;;;4.87;3.87;;;20.90;66.50;;;;;;5068204;28;43365;-75
2022/09/21 06:46:37;;;;;;;4.30;3.90;;;20.90;66.40;;;;;;5056652;28;43970;-76
2022/09/21 06:49:05;;;;;;;4.13;3.50;;;20.90;66.50;;;;;;5048249;28;45686;-76
2022/09/21 06:51:35;;;;;;;4.37;3.60;;;20.90;66.60;;;;;;5048919;28;43898;-77
2022/09/21 06:54:03;;;;;;;3.60;3.27;;;20.80;67.00;;;;;;5067630;28;43393;-75
2022/09/21 06:56:31;;;;;;;4.40;3.60;;;20.80;66.90;;;;;;5049707;28;43490;-76
2022/09/21 06:59:00;;;;;;;3.63;3.30;;;20.80;66.80;;;;;;5067002;28;43640;-78
2022/09/21 07:01:28;;;;;;;3.50;3.23;;;20.80;66.70;;;;;;5048445;28;44370;-76
2022/09/21 07:03:56;;;;;;;3.80;3.50;;;20.80;66.80;;;;;;5053555;28;43821;-76
2022/09/21 07:06:24;;;;;;;7.03;4.30;;;20.80;67.30;;;;;;5077089;28;43468;-75
2022/09/21 07:08:53;;;;;;;4.00;3.60;;;20.80;67.20;;;;;;5050839;28;45746;-77
2022/09/21 07:11:41;;;;;;;3.37;3.07;;;20.80;66.90;;;;;;5074224;28;43463;-77
2022/09/21 07:14:10;;;;;;;3.57;3.27;;;20.80;66.90;;;;;;5053002;28;43432;-76
2022/09/21 07:16:39;;;;;;;4.50;3.70;;;20.80;66.90;;;;;;5067868;28;43536;-76
2022/09/21 07:19:07;;;;;;;4.30;3.60;;;20.70;67.20;;;;;;5041643;28;45978;-76
2022/09/21 07:21:39;;;;;;;3.73;3.43;;;20.80;67.30;;;;;;5067529;28;43471;-76
2022/09/21 07:24:07;;;;;;;5.13;3.23;;;20.90;67.00;;;;;;5067938;28;43455;-76
2022/09/21 07:26:39;;;;;;;3.40;3.20;;;21.00;66.50;;;;;;5067731;28;43354;-76
2022/09/21 07:29:07;;;;;;;3.33;3.03;;;21.20;65.90;;;;;;5074059;28;43840;-75
2022/09/21 07:31:37;;;;;;;3.17;2.93;;;21.30;65.60;;;;;;5049808;28;43644;-76
2022/09/21 07:34:05;;;;;;;3.60;3.30;;;21.30;65.50;;;;;;5067297;28;43443;-75
2022/09/21 07:36:33;;;;;;;3.53;3.23;;;21.20;65.50;;;;;;5048799;28;43623;-76
2022/09/21 07:39:01;;;;;;;3.83;3.50;;;21.10;65.70;;;;;;5066593;28;43611;-77
2022/09/21 07:41:29;;;;;;;3.07;2.80;;;21.00;65.90;;;;;;5066805;28;44044;-76
2022/09/21 07:43:57;;;;;;;3.40;3.10;;;21.00;66.60;;;;;;5066702;28;43475;-75
2022/09/21 07:46:25;;;;;;;4.00;3.60;;;20.90;66.60;;;;;;5067776;28;43983;-76
2022/09/21 07:48:55;;;;;;;3.53;3.23;;;20.90;66.60;;;;;;5059304;28;43908;-76
2022/09/21 07:51:23;;;;;;;3.13;2.90;;;20.90;66.60;;;;;;5066534;28;43464;-76
2022/09/21 07:53:55;;;;;;;3.27;2.97;;;20.80;66.50;;;;;;5047921;28;43327;-76
2022/09/21 07:56:23;;;;;;;3.33;3.13;;;20.80;67.10;;;;;;5067590;28;43448;-76
2022/09/21 07:59:05;;;;;;;3.23;3.00;;;20.80;67.20;;;;;;5065762;28;43670;-76
2022/09/21 08:01:33;;;;;;;3.60;3.30;;;20.90;66.90;;;;;;5066790;28;43471;-77
2022/09/21 08:04:05;;;;;;;3.00;2.80;;;21.00;66.50;;;;;;5072344;28;43445;-76
2022/09/21 08:06:34;;;;;;;3.53;3.23;;;21.10;66.30;;;;;;5055187;28;43562;-76
2022/09/21 08:09:02;;;;;;;3.37;3.17;;;21.00;66.20;;;;;;5066977;28;43932;-76
2022/09/21 08:11:30;;;;;;;2.70;2.50;;;20.90;66.60;;;;;;5048405;28;44611;-77
2022/09/21 08:13:59;;;;;;;3.60;3.10;;;21.00;66.60;;;;;;5066798;28;43443;-76
2022/09/21 08:16:27;;;;;;;3.03;2.83;;;21.00;66.60;;;;;;5074066;28;44084;-75
2022/09/21 08:18:56;;;;;;;3.20;3.00;;;20.90;66.50;;;;;;5047932;28;45767;-76
2022/09/21 08:21:25;;;;;;;2.87;2.70;;;20.90;66.60;;;;;;5049868;28;44730;-76
2022/09/21 08:23:53;;;;;;;3.10;2.90;;;20.80;66.80;;;;;;5047677;28;43479;-76
2022/09/21 08:26:22;;;;;;;2.97;2.87;;;20.80;67.10;;;;;;5041841;28;43583;-77
2022/09/21 08:28:52;;;;;;;3.20;3.00;;;20.80;66.90;;;;;;5064609;28;43901;-77
2022/09/21 08:31:21;;;;;;;2.87;2.77;;;20.80;66.80;;;;;;5059910;28;43566;-77
2022/09/21 08:33:50;;;;;;;2.80;2.70;;;20.80;66.90;;;;;;5077491;28;43427;-75
2022/09/21 08:36:18;;;;;;;2.97;2.77;;;20.70;67.00;;;;;;5073533;28;44067;-76
2022/09/21 08:38:48;;;;;;;3.10;2.90;;;20.80;67.40;;;;;;5047224;28;45682;-75
2022/09/21 08:41:17;;;;;;;2.70;2.60;;;20.90;67.20;;;;;;5066219;28;43415;-76
2022/09/21 08:43:47;;;;;;;2.80;2.60;;;21.00;66.70;;;;;;5066325;28;43372;-76
2022/09/21 08:46:17;;;;;;;2.90;2.70;;;21.10;66.30;;;;;;5074354;28;43447;-76
2022/09/21 08:48:47;;;;;;;2.77;2.60;;;21.20;66.10;;;;;;5068631;28;43661;-75
2022/09/21 08:51:17;;;;;;;3.40;3.10;;;21.20;65.90;;;;;;5065765;28;43400;-76
2022/09/21 08:53:46;;;;;;;2.60;2.50;;;21.10;66.00;;;;;;5062111;28;43437;-75
2022/09/21 08:56:15;;;;;;;2.90;2.70;;;21.00;66.10;;;;;;5078333;28;44031;-77
2022/09/21 08:58:43;;;;;;;3.30;3.00;;;20.90;66.30;;;;;;5065451;28;43881;-78
2022/09/21 09:01:29;;;;;;;2.60;2.50;;;20.90;66.90;;;;;;5066666;28;43418;-76
2022/09/21 09:04:10;;;;;;;2.50;2.40;;;20.90;66.80;;;;;;5058609;28;44018;-76
2022/09/21 09:06:41;;;;;;;2.40;2.30;;;20.90;66.80;;;;;;5062752;28;43333;-76
2022/09/21 09:09:31;;;;;;;3.13;2.83;;;20.80;66.70;;;;;;5060027;28;43875;-76
2022/09/21 09:12:07;;;;;;;2.67;2.57;;;20.80;67.00;;;;;;5043890;28;44438;-77
2022/09/21 09:14:58;;;;;;;2.57;2.47;;;20.80;67.40;;;;;;5047253;28;43438;-76
2022/09/21 09:17:36;;;;;;;2.60;2.40;;;20.80;67.00;;;;;;5080926;28;43431;-77
2022/09/21 09:20:06;;;;;;;2.50;2.40;;;20.80;67.00;;;;;;5065160;28;43603;-76
2022/09/21 09:22:36;;;;;;;2.33;2.23;;;20.80;67.70;;;;;;5066083;28;43741;-76
2022/09/21 09:25:07;;;;;;;2.33;2.23;;;20.70;67.10;;;;;;5065686;28;44106;-75
2022/09/21 09:27:36;;;;;;;2.20;2.10;;;20.70;67.50;;;;;;5077104;28;43502;-76
2022/09/21 09:30:06;;;;;;;2.40;2.30;;;20.80;67.40;;;;;;5065567;28;43600;-75
2022/09/21 09:32:49;;;;;;;2.80;2.70;;;20.90;66.90;;;;;;5065182;28;43912;-76
2022/09/21 09:35:22;;;;;;;2.67;2.57;;;21.10;66.50;;;;;;5047329;28;44531;-75
2022/09/21 09:37:50;;;;;;;2.57;2.43;;;21.20;66.20;;;;;;5070393;28;43440;-77
2022/09/21 09:40:25;;;;;;;2.40;2.30;;;21.10;65.90;;;;;;5071824;28;44022;-75
2022/09/21 09:42:55;;;;;;;1.83;1.83;;;21.10;66.10;;;;;;5059570;28;43562;-75
2022/09/21 09:45:35;;;;;;;2.40;2.30;;;21.00;66.20;;;;;;5066018;28;43961;-77
2022/09/21 09:48:11;;;;;;;2.30;2.20;;;20.90;66.60;;;;;;5061764;28;43472;-75
2022/09/21 09:50:40;;;;;;;2.53;2.43;;;20.90;66.90;;;;;;5020085;28;45982;-75
2022/09/21 09:53:10;;;;;;;2.30;2.20;;;20.90;66.80;;;;;;5030020;28;44422;-75
2022/09/21 09:55:42;;;;;;;2.23;2.13;;;20.90;66.80;;;;;;5034965;28;43405;-75
2022/09/21 09:58:17;;;;;;;2.10;2.00;;;20.80;66.80;;;;;;5049239;28;43432;-75
2022/09/21 10:00:45;;;;;;;2.37;2.17;;;20.80;67.30;;;;;;5027922;28;45670;-75
2022/09/21 10:03:18;;;;;;;2.63;2.47;;;20.80;67.30;;;;;;5055146;28;43459;-78
2022/09/21 10:05:46;;;;;;;2.23;2.13;;;20.90;67.00;;;;;;5029898;28;43455;-76
2022/09/21 10:08:28;;;;;;;2.47;2.30;;;21.00;66.70;;;;;;5030876;28;43504;-75
2022/09/21 10:10:57;;;;;;;2.10;2.00;;;21.00;66.50;;;;;;5054948;28;45659;-76
2022/09/21 10:13:28;;;;;;;1.87;1.87;;;21.00;66.60;;;;;;5048526;28;43844;-75
2022/09/21 10:15:57;;;;;;;2.37;2.27;;;21.00;66.90;;;;;;5028728;28;43502;-76
2022/09/21 10:18:27;;;;;;;1.97;1.97;;;20.90;66.60;;;;;;5034748;28;43523;-75
2022/09/21 10:20:57;;;;;;;2.23;2.13;;;20.90;66.60;;;;;;5048416;28;43917;-78
2022/09/21 10:23:25;;;;;;;1.97;1.87;;;20.90;66.70;;;;;;5048632;28;43400;-78
2022/09/21 10:26:00;;;;;;;2.00;1.90;;;20.90;66.80;;;;;;5029896;28;43456;-77
2022/09/21 10:28:28;;;;;;;2.40;2.30;;;20.90;67.40;;;;;;5049431;28;43451;-78
2022/09/21 10:31:21;;;;;;;2.00;2.00;;;20.90;67.20;;;;;;5048360;28;43574;-75
2022/09/21 10:33:51;;;;;;;1.90;1.90;;;20.80;67.00;;;;;;5042440;28;43804;-74
2022/09/21 10:36:29;;;;;;;2.10;2.00;;;20.80;67.00;;;;;;5029789;28;44086;-77
2022/09/21 10:39:20;;;;;;;2.27;2.17;;;20.80;67.00;;;;;;5048860;28;43891;-77
2022/09/21 10:41:50;;;;;;;2.30;2.20;;;20.80;67.60;;;;;;5052506;28;43612;-77
2022/09/21 10:44:19;;;;;;;2.27;1.90;;;20.80;67.40;;;;;;5048374;28;43998;-77
2022/09/21 10:46:47;;;;;;;2.20;2.10;;;20.90;67.10;;;;;;5048299;28;43498;-76
2022/09/21 10:49:17;;;;;;;1.83;1.83;;;21.00;66.70;;;;;;5039086;28;44090;-77
2022/09/21 10:51:45;;;;;;;2.10;2.00;;;21.20;66.50;;;;;;5074466;28;43600;-77
2022/09/21 10:54:16;;;;;;;1.70;1.70;;;21.20;66.20;;;;;;5053538;28;44725;-77
2022/09/21 10:56:52;;;;;;;1.73;1.63;;;21.10;66.10;;;;;;5068342;28;43415;-77
2022/09/21 10:59:22;;;;;;;1.93;1.93;;;21.10;67.10;;;;;;5042945;28;43535;-78
2022/09/21 11:01:51;;;;;;;1.70;1.60;;;21.00;66.50;;;;;;5072051;28;43939;-75
2022/09/21 11:04:29;;;;;;;1.80;1.70;;;20.90;66.90;;;;;;5058941;28;43398;-76
2022/09/21 11:07:02;;;;;;;1.57;1.57;;;20.90;66.90;;;;;;5067741;28;43506;-77
2022/09/21 11:09:33;;;;;;;1.73;1.73;;;20.90;66.90;;;;;;5060607;28;43559;-77
2022/09/21 11:12:07;;;;;;;1.70;1.70;;;20.90;66.90;;;;;;5067259;27;45458;-74
2022/09/21 11:14:41;;;;;;;1.70;1.70;;;20.90;67.10;;;;;;5065221;28;43530;-75
2022/09/21 11:17:11;;;;;;;1.90;1.80;;;20.80;67.40;;;;;;5061867;28;43442;-75
2022/09/21 11:19:42;;;;;;;2.10;2.00;;;20.90;67.50;;;;;;5066602;28;43820;-74
2022/09/21 11:22:14;;;;;;;2.00;2.00;;;20.90;67.10;;;;;;5065256;28;44084;-77
2022/09/21 11:24:45;;;;;;;2.20;2.10;;;21.00;66.80;;;;;;5065073;28;43364;-76
2022/09/21 11:27:17;;;;;;;2.07;1.97;;;21.00;66.60;;;;;;5069546;28;43392;-76
2022/09/21 11:29:50;;;;;;;1.60;1.60;;;20.90;66.90;;;;;;5048592;28;43475;-75
2022/09/21 11:32:37;;;;;;;2.30;2.10;;;21.00;67.00;;;;;;5049126;28;45713;-75
2022/09/21 11:35:26;;;;;;;1.53;1.50;;;20.90;66.70;;;;;;5063300;28;44025;-74
2022/09/21 11:38:04;;;;;;;1.90;1.83;;;20.90;66.80;;;;;;5059905;28;43358;-75
2022/09/21 11:40:50;;;;;;;2.13;2.03;;;20.90;66.80;;;;;;5056219;28;43989;-75
2022/09/21 11:43:28;;;;;;;2.20;2.10;;;20.90;67.30;;;;;;5060999;28;44020;-75
2022/09/21 11:46:01;;;;;;;2.40;2.30;;;20.90;67.10;;;;;;5064739;28;43514;-76
2022/09/21 11:48:40;;;;;;;1.90;1.80;;;20.80;66.90;;;;;;5059161;28;43490;-75
2022/09/21 11:51:18;;;;;;;2.10;2.00;;;20.80;67.00;;;;;;5054273;28;43400;-77
2022/09/21 11:54:07;;;;;;;2.23;2.13;;;20.80;67.20;;;;;;5050585;28;43599;-76
2022/09/21 11:56:42;;;;;;;1.83;1.80;;;20.80;67.40;;;;;;5034299;28;44523;-75
2022/09/21 11:59:21;;;;;;;2.10;2.00;;;20.90;67.10;;;;;;5057656;28;44025;-77
2022/09/21 12:01:58;;;;;;;1.90;1.90;;;21.00;66.80;;;;;;5056310;28;43826;-75
2022/09/21 12:04:35;;;;;;;2.00;1.90;;;21.10;66.50;;;;;;5057126;28;43625;-77
2022/09/21 12:07:23;;;;;;;2.17;2.03;;;21.00;66.30;;;;;;5042409;28;44631;-76
2022/09/21 12:10:00;;;;;;;2.20;2.10;;;21.00;66.60;;;;;;5037467;28;43959;-76
2022/09/21 12:12:33;;;;;;;1.87;1.77;;;21.00;66.50;;;;;;5066463;28;43576;-77
2022/09/21 12:15:07;;;;;;;1.97;1.90;;;21.00;66.50;;;;;;5060487;28;43863;-76
2022/09/21 12:17:42;;;;;;;1.70;1.60;;;20.90;66.50;;;;;;5033989;28;44667;-77
2022/09/21 12:20:12;;;;;;;1.87;1.80;;;20.90;66.60;;;;;;5032718;28;43475;-75
2022/09/21 12:22:41;;;;;;;2.10;2.00;;;20.90;67.00;;;;;;5056801;28;43544;-75
2022/09/21 12:25:15;;;;;;;1.63;1.63;;;20.90;67.00;;;;;;5030095;28;46048;-75
2022/09/21 12:27:46;;;;;;;1.50;1.50;;;20.90;66.90;;;;;;5051450;28;43465;-74
2022/09/21 12:30:17;;;;;;;1.60;1.60;;;20.90;66.90;;;;;;5036198;28;44088;-76
2022/09/21 12:32:52;;;;;;;1.80;1.80;;;20.80;66.80;;;;;;5053990;28;43329;-75
2022/09/21 12:35:23;;;;;;;2.00;2.00;;;20.80;67.20;;;;;;5037716;28;46026;-75
2022/09/21 12:37:54;;;;;;;1.97;1.97;;;20.90;67.30;;;;;;5050849;28;43448;-77
2022/09/21 12:40:26;;;;;;;1.80;1.77;;;20.90;67.00;;;;;;5028892;28;43555;-78
2022/09/21 12:42:58;;;;;;;2.10;2.00;;;21.10;66.80;;;;;;5033800;28;43448;-77
2022/09/21 12:45:29;;;;;;;1.80;1.80;;;21.10;66.30;;;;;;5042525;28;45360;-77
2022/09/21 12:47:59;;;;;;;1.70;1.70;;;21.20;66.10;;;;;;5032039;28;45107;-77
2022/09/21 12:50:30;;;;;;;1.73;1.73;;;21.10;66.80;;;;;;5059969;28;43545;-77
2022/09/21 12:52:57;;;;;;;1.97;1.87;;;21.00;66.20;;;;;;5066069;28;43481;-76
2022/09/21 12:55:44;;;;;;;1.80;1.80;;;21.00;66.40;;;;;;5047190;28;45981;-76
2022/09/21 12:58:22;;;;;;;1.60;1.60;;;20.90;66.90;;;;;;5060959;28;43626;-76
2022/09/21 13:00:57;;;;;;;2.00;1.90;;;20.90;66.80;;;;;;5062169;28;43434;-76
2022/09/21 13:03:28;;;;;;;1.70;1.70;;;20.90;66.80;;;;;;5062144;28;43832;-75
2022/09/21 13:06:07;;;;;;;1.70;1.70;;;20.90;66.90;;;;;;5065851;28;43916;-77
2022/09/21 13:08:36;;;;;;;1.77;1.67;;;20.90;67.00;;;;;;5058161;28;43988;-75
2022/09/21 13:11:06;;;;;;;1.40;1.40;;;20.90;67.50;;;;;;5059464;28;43482;-77